EZY379 EGKK-EKCH
Flight info
| Callsign | EZY379 |
|---|---|
| Flight time | 1h 45m |
| Altitude | 25000 |
| Route | FRANE M604 PAAVO Q295 SOMVA DCT MAVAS DCT DOSUR DCT TALSA P729 TUDLO |
| Aircraft | A20N/M-SDE2E3FGHIRWXY/LB1 |
Departure
| Time | 2026-04-25 13:56 |
|---|---|
| Airport | London Gatwick Airport (EGKK) |
Arrival
| Time | 2026-04-25 15:41 |
|---|---|
| Airport | Copenhagen Kastrup Airport (EKCH) |
| Time | Latitude | Longitude | Altitude | Speed | Heading |
|---|---|---|---|---|---|
| 2026-04-25 13:37 | 51.15104 | -0.19453 | 219 ft | 0 kts | 78° |
| 2026-04-25 13:45 | 51.15103 | -0.19461 | 219 ft | 3 kts | 99° |
| 2026-04-25 13:45 | 51.15112 | -0.19483 | 212 ft | 3 kts | 173° |
| 2026-04-25 13:45 | 51.15129 | -0.19474 | 215 ft | 3 kts | 235° |
| 2026-04-25 13:45 | 51.15134 | -0.19456 | 217 ft | 0 kts | 250° |
| 2026-04-25 13:48 | 51.15128 | -0.19484 | 216 ft | 7 kts | 250° |
| 2026-04-25 13:48 | 51.15104 | -0.19533 | 207 ft | 11 kts | 221° |
| 2026-04-25 13:49 | 51.15022 | -0.19583 | 216 ft | 10 kts | 224° |
| 2026-04-25 13:49 | 51.14999 | -0.19683 | 213 ft | 12 kts | 255° |
| 2026-04-25 13:49 | 51.14984 | -0.19782 | 217 ft | 13 kts | 257° |
| 2026-04-25 13:49 | 51.14948 | -0.20034 | 206 ft | 22 kts | 259° |
| 2026-04-25 13:50 | 51.14926 | -0.20211 | 210 ft | 26 kts | 258° |
| 2026-04-25 13:50 | 51.14887 | -0.20498 | 205 ft | 29 kts | 258° |
| 2026-04-25 13:50 | 51.14842 | -0.20821 | 205 ft | 29 kts | 257° |
| 2026-04-25 13:50 | 51.14801 | -0.21115 | 208 ft | 22 kts | 256° |
| 2026-04-25 13:51 | 51.14735 | -0.21340 | 213 ft | 17 kts | 210° |
| 2026-04-25 13:51 | 51.14641 | -0.21330 | 204 ft | 8 kts | 170° |
| 2026-04-25 13:51 | 51.14639 | -0.21329 | 204 ft | 0 kts | 170° |
| 2026-04-25 13:54 | 51.14637 | -0.21329 | 204 ft | 2 kts | 170° |
| 2026-04-25 13:54 | 51.14596 | -0.21317 | 212 ft | 10 kts | 169° |
| 2026-04-25 13:54 | 51.14536 | -0.21248 | 210 ft | 14 kts | 124° |
| 2026-04-25 13:55 | 51.14528 | -0.21066 | 212 ft | 20 kts | 75° |
| 2026-04-25 13:55 | 51.14563 | -0.20819 | 210 ft | 26 kts | 78° |
| 2026-04-25 13:55 | 51.14640 | -0.20263 | 213 ft | 96 kts | 77° |
| 2026-04-25 13:55 | 51.14859 | -0.18675 | 238 ft | 188 kts | 78° |
| 2026-04-25 13:56 | 51.15154 | -0.16462 | 708 ft | 223 kts | 77° |
| 2026-04-25 13:56 | 51.15506 | -0.13894 | 1682 ft | 244 kts | 77° |
| 2026-04-25 13:56 | 51.15890 | -0.11141 | 2801 ft | 268 kts | 77° |
| 2026-04-25 13:56 | 51.16298 | -0.08219 | 3449 ft | 268 kts | 77° |
| 2026-04-25 13:57 | 51.16694 | -0.05318 | 3751 ft | 267 kts | 79° |
| 2026-04-25 13:57 | 51.16849 | -0.03332 | 3818 ft | 268 kts | 86° |
| 2026-04-25 13:57 | 51.16849 | 0.00617 | 4105 ft | 276 kts | 91° |
| 2026-04-25 13:57 | 51.16791 | 0.03535 | 4579 ft | 274 kts | 92° |
| 2026-04-25 13:58 | 51.16728 | 0.06557 | 4775 ft | 272 kts | 92° |
| 2026-04-25 13:58 | 51.16668 | 0.09563 | 4784 ft | 272 kts | 92° |
| 2026-04-25 13:58 | 51.16609 | 0.12592 | 4781 ft | 273 kts | 92° |
| 2026-04-25 13:58 | 51.16569 | 0.15625 | 4781 ft | 273 kts | 90° |
| 2026-04-25 13:59 | 51.16565 | 0.18570 | 4783 ft | 273 kts | 90° |
| 2026-04-25 13:59 | 51.16569 | 0.21595 | 4783 ft | 273 kts | 90° |
| 2026-04-25 13:59 | 51.16575 | 0.24618 | 4781 ft | 273 kts | 90° |
| 2026-04-25 13:59 | 51.16581 | 0.27609 | 4782 ft | 273 kts | 90° |
| 2026-04-25 14:00 | 51.16585 | 0.30631 | 4782 ft | 273 kts | 90° |
| 2026-04-25 14:00 | 51.16589 | 0.33559 | 4782 ft | 273 kts | 90° |
| 2026-04-25 14:00 | 51.16592 | 0.36593 | 4784 ft | 273 kts | 90° |
| 2026-04-25 14:00 | 51.16594 | 0.39416 | 4783 ft | 273 kts | 90° |
| 2026-04-25 14:01 | 51.16596 | 0.42439 | 4783 ft | 273 kts | 90° |
| 2026-04-25 14:01 | 51.16596 | 0.45472 | 4782 ft | 273 kts | 90° |
| 2026-04-25 14:01 | 51.16598 | 0.48493 | 4781 ft | 273 kts | 89° |
| 2026-04-25 14:01 | 51.16851 | 0.51483 | 4782 ft | 272 kts | 71° |
| 2026-04-25 14:02 | 51.17533 | 0.53528 | 4785 ft | 271 kts | 50° |
| 2026-04-25 14:02 | 51.19037 | 0.55366 | 4782 ft | 268 kts | 22° |
| 2026-04-25 14:02 | 51.20807 | 0.56258 | 4782 ft | 268 kts | 13° |
| 2026-04-25 14:02 | 51.22031 | 0.56714 | 4780 ft | 269 kts | 12° |
| 2026-04-25 14:03 | 51.24463 | 0.57571 | 4781 ft | 269 kts | 11° |
| 2026-04-25 14:03 | 51.26146 | 0.58172 | 4774 ft | 269 kts | 12° |
| 2026-04-25 14:03 | 51.27961 | 0.58833 | 4779 ft | 269 kts | 12° |
| 2026-04-25 14:03 | 51.29756 | 0.59494 | 4779 ft | 269 kts | 12° |
| 2026-04-25 14:04 | 51.31581 | 0.60169 | 4778 ft | 269 kts | 12° |
| 2026-04-25 14:04 | 51.33391 | 0.60842 | 4819 ft | 269 kts | 12° |
| 2026-04-25 14:04 | 51.34823 | 0.61375 | 5146 ft | 277 kts | 12° |
| 2026-04-25 14:04 | 51.36695 | 0.62073 | 5619 ft | 274 kts | 12° |
| 2026-04-25 14:05 | 51.38400 | 0.62711 | 5772 ft | 271 kts | 12° |
| 2026-04-25 14:05 | 51.40222 | 0.63397 | 5787 ft | 272 kts | 12° |
| 2026-04-25 14:05 | 51.42073 | 0.64098 | 6145 ft | 277 kts | 12° |
| 2026-04-25 14:05 | 51.43346 | 0.64580 | 6780 ft | 282 kts | 12° |
| 2026-04-25 14:06 | 51.45241 | 0.65300 | 8099 ft | 280 kts | 12° |
| 2026-04-25 14:06 | 51.47115 | 0.66014 | 9316 ft | 281 kts | 12° |
| 2026-04-25 14:06 | 51.49021 | 0.66740 | 10398 ft | 288 kts | 12° |
| 2026-04-25 14:06 | 51.51072 | 0.67518 | 10985 ft | 314 kts | 12° |
| 2026-04-25 14:07 | 51.53304 | 0.68365 | 11402 ft | 343 kts | 12° |
| 2026-04-25 14:07 | 51.55704 | 0.69276 | 11811 ft | 368 kts | 12° |
| 2026-04-25 14:07 | 51.58082 | 0.70182 | 12427 ft | 381 kts | 12° |
| 2026-04-25 14:07 | 51.59992 | 0.70910 | 13007 ft | 388 kts | 12° |
| 2026-04-25 14:08 | 51.61909 | 0.71641 | 13610 ft | 392 kts | 12° |
| 2026-04-25 14:08 | 51.64129 | 0.72487 | 14310 ft | 394 kts | 13° |
| 2026-04-25 14:08 | 51.66885 | 0.73539 | 14823 ft | 398 kts | 13° |
| 2026-04-25 14:08 | 51.69483 | 0.74531 | 14985 ft | 399 kts | 13° |
| 2026-04-25 14:09 | 51.72190 | 0.75567 | 15001 ft | 400 kts | 13° |
| 2026-04-25 14:09 | 51.74904 | 0.76607 | 15001 ft | 401 kts | 13° |
| 2026-04-25 14:09 | 51.77632 | 0.77654 | 15002 ft | 402 kts | 13° |
| 2026-04-25 14:09 | 51.79432 | 0.78359 | 15001 ft | 402 kts | 14° |
| 2026-04-25 14:10 | 51.82598 | 0.80632 | 15000 ft | 402 kts | 32° |
| 2026-04-25 14:10 | 51.84800 | 0.83327 | 14998 ft | 403 kts | 44° |
| 2026-04-25 14:10 | 51.86570 | 0.86876 | 15002 ft | 403 kts | 58° |
| 2026-04-25 14:10 | 51.87878 | 0.90784 | 14998 ft | 403 kts | 64° |
| 2026-04-25 14:11 | 51.89004 | 0.94819 | 15000 ft | 403 kts | 67° |
| 2026-04-25 14:11 | 51.90060 | 0.99011 | 15000 ft | 403 kts | 68° |
| 2026-04-25 14:11 | 51.91022 | 1.02986 | 15000 ft | 403 kts | 69° |
| 2026-04-25 14:11 | 51.92036 | 1.07187 | 15000 ft | 403 kts | 68° |
| 2026-04-25 14:12 | 51.93059 | 1.11374 | 15002 ft | 403 kts | 68° |
| 2026-04-25 14:12 | 51.94092 | 1.15535 | 15000 ft | 403 kts | 68° |
| 2026-04-25 14:12 | 51.95153 | 1.19760 | 15272 ft | 408 kts | 68° |
| 2026-04-25 14:12 | 51.96115 | 1.23564 | 16067 ft | 411 kts | 68° |
| 2026-04-25 14:13 | 51.97190 | 1.27806 | 17040 ft | 413 kts | 68° |
| 2026-04-25 14:13 | 51.98279 | 1.32104 | 17895 ft | 417 kts | 68° |
| 2026-04-25 14:13 | 51.99247 | 1.35929 | 18586 ft | 421 kts | 68° |
| 2026-04-25 14:13 | 52.00272 | 1.39992 | 19287 ft | 426 kts | 68° |
| 2026-04-25 14:14 | 52.01387 | 1.44417 | 20006 ft | 431 kts | 68° |
| 2026-04-25 14:14 | 52.02539 | 1.49006 | 20725 ft | 435 kts | 68° |
| 2026-04-25 14:14 | 52.03651 | 1.53441 | 21387 ft | 439 kts | 68° |
| 2026-04-25 14:14 | 52.04808 | 1.58070 | 22048 ft | 444 kts | 68° |
| 2026-04-25 14:15 | 52.05960 | 1.62688 | 22698 ft | 448 kts | 68° |
| 2026-04-25 14:15 | 52.06353 | 1.64264 | 22893 ft | 450 kts | 68° |
| 2026-04-25 14:15 | 52.08318 | 1.72165 | 23940 ft | 457 kts | 68° |
| 2026-04-25 14:15 | 52.09517 | 1.77002 | 24548 ft | 461 kts | 68° |
| 2026-04-25 14:16 | 52.10714 | 1.81842 | 24910 ft | 463 kts | 68° |
| 2026-04-25 14:16 | 52.11914 | 1.86702 | 24990 ft | 464 kts | 68° |
| 2026-04-25 14:16 | 52.13118 | 1.91590 | 25005 ft | 465 kts | 68° |
| 2026-04-25 14:16 | 52.14319 | 1.96478 | 24996 ft | 466 kts | 68° |
| 2026-04-25 14:17 | 52.15525 | 2.01400 | 25000 ft | 466 kts | 68° |
| 2026-04-25 14:17 | 52.16721 | 2.06288 | 24999 ft | 466 kts | 68° |
| 2026-04-25 14:17 | 52.17920 | 2.11201 | 25000 ft | 466 kts | 68° |
| 2026-04-25 14:17 | 52.19117 | 2.16116 | 25000 ft | 466 kts | 68° |
| 2026-04-25 14:18 | 52.20316 | 2.21053 | 25005 ft | 466 kts | 68° |
| 2026-04-25 14:18 | 52.21510 | 2.25976 | 24999 ft | 466 kts | 68° |
| 2026-04-25 14:18 | 52.22684 | 2.30831 | 25000 ft | 466 kts | 68° |
| 2026-04-25 14:18 | 52.23869 | 2.35739 | 25001 ft | 466 kts | 68° |
| 2026-04-25 14:19 | 52.25059 | 2.40682 | 24997 ft | 466 kts | 68° |
| 2026-04-25 14:19 | 52.26242 | 2.45605 | 24997 ft | 466 kts | 68° |
| 2026-04-25 14:19 | 52.27428 | 2.50555 | 25005 ft | 466 kts | 69° |
| 2026-04-25 14:19 | 52.28609 | 2.55491 | 24998 ft | 466 kts | 69° |
| 2026-04-25 14:20 | 52.29770 | 2.60359 | 24998 ft | 466 kts | 69° |
| 2026-04-25 14:20 | 52.30164 | 2.62039 | 25004 ft | 466 kts | 70° |
| 2026-04-25 14:20 | 52.31791 | 2.70418 | 25002 ft | 466 kts | 73° |
| 2026-04-25 14:20 | 52.32720 | 2.75524 | 25000 ft | 466 kts | 73° |
| 2026-04-25 14:21 | 52.33618 | 2.80599 | 25000 ft | 466 kts | 74° |
| 2026-04-25 14:21 | 52.34512 | 2.85721 | 24999 ft | 466 kts | 74° |
| 2026-04-25 14:21 | 52.35395 | 2.90813 | 25005 ft | 466 kts | 74° |
| 2026-04-25 14:21 | 52.36279 | 2.95915 | 24999 ft | 466 kts | 74° |
| 2026-04-25 14:22 | 52.37163 | 3.01023 | 25005 ft | 466 kts | 74° |
| 2026-04-25 14:22 | 52.38041 | 3.06098 | 25006 ft | 466 kts | 74° |
| 2026-04-25 14:22 | 52.38929 | 3.11171 | 25005 ft | 466 kts | 72° |
| 2026-04-25 14:22 | 52.40141 | 3.16100 | 24999 ft | 466 kts | 63° |
| 2026-04-25 14:23 | 52.41792 | 3.20637 | 25006 ft | 466 kts | 57° |
| 2026-04-25 14:23 | 52.43626 | 3.25036 | 24998 ft | 466 kts | 54° |
| 2026-04-25 14:23 | 52.45539 | 3.29336 | 25005 ft | 466 kts | 53° |
| 2026-04-25 14:23 | 52.47490 | 3.33584 | 24996 ft | 466 kts | 52° |
| 2026-04-25 14:24 | 52.49457 | 3.37827 | 25004 ft | 466 kts | 52° |
| 2026-04-25 14:24 | 52.51419 | 3.42068 | 24998 ft | 466 kts | 52° |
| 2026-04-25 14:24 | 52.53346 | 3.46258 | 25005 ft | 466 kts | 53° |
| 2026-04-25 14:24 | 52.55288 | 3.50511 | 25000 ft | 466 kts | 53° |
| 2026-04-25 14:25 | 52.57226 | 3.54779 | 24996 ft | 466 kts | 53° |
| 2026-04-25 14:25 | 52.59180 | 3.59102 | 24999 ft | 466 kts | 53° |
| 2026-04-25 14:25 | 52.61082 | 3.63321 | 25000 ft | 466 kts | 53° |
| 2026-04-25 14:25 | 52.61736 | 3.64775 | 24998 ft | 466 kts | 53° |
| 2026-04-25 14:26 | 52.64940 | 3.71907 | 24998 ft | 466 kts | 53° |
| 2026-04-25 14:26 | 52.66863 | 3.76197 | 25000 ft | 466 kts | 53° |
| 2026-04-25 14:26 | 52.68789 | 3.80498 | 24998 ft | 466 kts | 53° |
| 2026-04-25 14:26 | 52.70709 | 3.84795 | 25002 ft | 466 kts | 53° |
| 2026-04-25 14:27 | 52.72626 | 3.89090 | 24997 ft | 466 kts | 53° |
| 2026-04-25 14:27 | 52.74544 | 3.93394 | 24996 ft | 466 kts | 53° |
| 2026-04-25 14:27 | 52.76472 | 3.97731 | 25001 ft | 466 kts | 53° |
| 2026-04-25 14:27 | 52.78379 | 4.02024 | 25011 ft | 466 kts | 53° |
| 2026-04-25 14:28 | 52.80302 | 4.06362 | 24997 ft | 466 kts | 53° |
| 2026-04-25 14:28 | 52.82186 | 4.10619 | 24996 ft | 466 kts | 53° |
| 2026-04-25 14:28 | 52.84123 | 4.15005 | 25000 ft | 466 kts | 53° |
| 2026-04-25 14:28 | 52.86026 | 4.19320 | 24999 ft | 465 kts | 53° |
| 2026-04-25 14:29 | 52.87907 | 4.23593 | 25000 ft | 465 kts | 54° |
| 2026-04-25 14:29 | 52.89827 | 4.27959 | 25000 ft | 465 kts | 54° |
| 2026-04-25 14:29 | 52.91727 | 4.32291 | 25000 ft | 465 kts | 54° |
| 2026-04-25 14:29 | 52.93560 | 4.36476 | 25001 ft | 465 kts | 54° |
| 2026-04-25 14:30 | 52.94344 | 4.38268 | 24997 ft | 465 kts | 54° |
| 2026-04-25 14:30 | 52.98179 | 4.47051 | 25002 ft | 465 kts | 54° |
| 2026-04-25 14:30 | 53.00085 | 4.51427 | 25009 ft | 465 kts | 54° |
| 2026-04-25 14:31 | 53.01951 | 4.55721 | 25006 ft | 465 kts | 54° |
| 2026-04-25 14:31 | 53.03872 | 4.60147 | 24996 ft | 465 kts | 54° |
| 2026-04-25 14:31 | 53.05760 | 4.64505 | 25007 ft | 465 kts | 54° |
| 2026-04-25 14:31 | 53.07653 | 4.68881 | 25000 ft | 465 kts | 54° |
| 2026-04-25 14:32 | 53.09514 | 4.73192 | 24996 ft | 465 kts | 54° |
| 2026-04-25 14:32 | 53.11410 | 4.77590 | 25000 ft | 465 kts | 54° |
| 2026-04-25 14:32 | 53.13290 | 4.81961 | 25000 ft | 465 kts | 54° |
| 2026-04-25 14:32 | 53.15179 | 4.86358 | 25000 ft | 465 kts | 54° |
| 2026-04-25 14:33 | 53.17063 | 4.90751 | 24996 ft | 465 kts | 54° |
| 2026-04-25 14:33 | 53.18945 | 4.95148 | 25001 ft | 465 kts | 54° |
| 2026-04-25 14:33 | 53.20820 | 4.99537 | 24996 ft | 465 kts | 54° |
| 2026-04-25 14:33 | 53.22689 | 5.03919 | 24996 ft | 465 kts | 54° |
| 2026-04-25 14:34 | 53.24553 | 5.08296 | 25001 ft | 465 kts | 54° |
| 2026-04-25 14:34 | 53.25804 | 5.11236 | 25004 ft | 465 kts | 54° |
| 2026-04-25 14:34 | 53.28301 | 5.17120 | 25000 ft | 465 kts | 54° |
| 2026-04-25 14:34 | 53.29545 | 5.20056 | 24998 ft | 465 kts | 54° |
| 2026-04-25 14:35 | 53.32048 | 5.25974 | 25009 ft | 465 kts | 54° |
| 2026-04-25 14:35 | 53.33289 | 5.28914 | 24998 ft | 465 kts | 54° |
| 2026-04-25 14:35 | 53.35774 | 5.34809 | 24996 ft | 465 kts | 54° |
| 2026-04-25 14:35 | 53.37017 | 5.37765 | 25010 ft | 465 kts | 54° |
| 2026-04-25 14:36 | 53.38882 | 5.42204 | 25000 ft | 465 kts | 54° |
| 2026-04-25 14:36 | 53.40741 | 5.46636 | 24996 ft | 465 kts | 54° |
| 2026-04-25 14:36 | 53.42598 | 5.51073 | 24999 ft | 465 kts | 54° |
| 2026-04-25 14:36 | 53.44397 | 5.55377 | 24997 ft | 465 kts | 55° |
| 2026-04-25 14:37 | 53.46320 | 5.59985 | 25000 ft | 465 kts | 55° |
| 2026-04-25 14:37 | 53.48176 | 5.64443 | 24996 ft | 465 kts | 55° |
| 2026-04-25 14:37 | 53.50024 | 5.68888 | 25003 ft | 465 kts | 55° |
| 2026-04-25 14:37 | 53.51852 | 5.73292 | 24996 ft | 465 kts | 55° |
| 2026-04-25 14:38 | 53.53698 | 5.77748 | 24999 ft | 465 kts | 55° |
| 2026-04-25 14:38 | 53.55549 | 5.82226 | 24996 ft | 465 kts | 55° |
| 2026-04-25 14:38 | 53.57406 | 5.86724 | 25005 ft | 465 kts | 55° |
| 2026-04-25 14:38 | 53.59247 | 5.91192 | 24998 ft | 465 kts | 55° |
| 2026-04-25 14:39 | 53.61090 | 5.95672 | 24999 ft | 465 kts | 55° |
| 2026-04-25 14:39 | 53.62934 | 6.00164 | 25002 ft | 465 kts | 55° |
| 2026-04-25 14:39 | 53.64773 | 6.04650 | 24999 ft | 465 kts | 55° |
| 2026-04-25 14:39 | 53.66587 | 6.09084 | 25002 ft | 465 kts | 55° |
| 2026-04-25 14:40 | 53.68426 | 6.13589 | 25001 ft | 465 kts | 55° |
| 2026-04-25 14:40 | 53.70254 | 6.18071 | 24998 ft | 465 kts | 55° |
| 2026-04-25 14:40 | 53.72093 | 6.22591 | 25004 ft | 465 kts | 55° |
| 2026-04-25 14:40 | 53.73900 | 6.27039 | 24621 ft | 456 kts | 55° |
| 2026-04-25 14:41 | 53.75702 | 6.31482 | 23775 ft | 460 kts | 55° |
| 2026-04-25 14:41 | 53.77533 | 6.36006 | 23222 ft | 473 kts | 55° |
| 2026-04-25 14:41 | 53.79396 | 6.40616 | 23028 ft | 475 kts | 56° |
| 2026-04-25 14:41 | 53.81262 | 6.45243 | 22999 ft | 474 kts | 56° |
| 2026-04-25 14:42 | 53.83122 | 6.49864 | 23000 ft | 473 kts | 56° |
| 2026-04-25 14:42 | 53.84346 | 6.52909 | 23001 ft | 473 kts | 56° |
| 2026-04-25 14:42 | 53.86795 | 6.59014 | 23001 ft | 472 kts | 56° |
| 2026-04-25 14:42 | 53.88636 | 6.63612 | 22999 ft | 472 kts | 56° |
| 2026-04-25 14:43 | 53.90480 | 6.68227 | 23000 ft | 472 kts | 56° |
| 2026-04-25 14:43 | 53.92322 | 6.72846 | 22860 ft | 467 kts | 56° |
| 2026-04-25 14:43 | 53.94101 | 6.77311 | 22068 ft | 458 kts | 56° |
| 2026-04-25 14:43 | 53.95879 | 6.81786 | 21049 ft | 457 kts | 56° |
| 2026-04-25 14:44 | 53.97656 | 6.86264 | 20371 ft | 458 kts | 56° |
| 2026-04-25 14:44 | 53.99425 | 6.90732 | 20063 ft | 456 kts | 56° |
| 2026-04-25 14:44 | 54.01194 | 6.95208 | 20001 ft | 455 kts | 56° |
| 2026-04-25 14:44 | 54.02952 | 6.99665 | 20001 ft | 453 kts | 56° |
| 2026-04-25 14:45 | 54.04713 | 7.04135 | 20000 ft | 452 kts | 56° |
| 2026-04-25 14:45 | 54.06442 | 7.08532 | 20001 ft | 452 kts | 56° |
| 2026-04-25 14:45 | 54.08208 | 7.13031 | 20000 ft | 452 kts | 56° |
| 2026-04-25 14:45 | 54.09962 | 7.17510 | 19999 ft | 452 kts | 56° |
| 2026-04-25 14:46 | 54.11692 | 7.21933 | 19999 ft | 452 kts | 56° |
| 2026-04-25 14:46 | 54.13430 | 7.26384 | 20001 ft | 452 kts | 56° |
| 2026-04-25 14:46 | 54.15172 | 7.30855 | 20001 ft | 452 kts | 56° |
| 2026-04-25 14:46 | 54.16918 | 7.35342 | 19999 ft | 452 kts | 56° |
| 2026-04-25 14:47 | 54.18659 | 7.39826 | 19999 ft | 452 kts | 56° |
| 2026-04-25 14:47 | 54.19815 | 7.42806 | 20000 ft | 452 kts | 56° |
| 2026-04-25 14:47 | 54.22115 | 7.48750 | 20001 ft | 452 kts | 56° |
| 2026-04-25 14:47 | 54.23851 | 7.53244 | 20001 ft | 452 kts | 56° |
| 2026-04-25 14:48 | 54.25583 | 7.57735 | 19999 ft | 452 kts | 56° |
| 2026-04-25 14:48 | 54.27313 | 7.62231 | 19999 ft | 452 kts | 56° |
| 2026-04-25 14:48 | 54.29044 | 7.66737 | 19999 ft | 452 kts | 56° |
| 2026-04-25 14:48 | 54.30771 | 7.71241 | 19999 ft | 452 kts | 57° |
| 2026-04-25 14:49 | 54.32502 | 7.75764 | 20001 ft | 452 kts | 57° |
| 2026-04-25 14:49 | 54.34225 | 7.80274 | 20000 ft | 452 kts | 57° |
| 2026-04-25 14:49 | 54.35942 | 7.84775 | 20001 ft | 452 kts | 57° |
| 2026-04-25 14:49 | 54.37643 | 7.89243 | 20001 ft | 452 kts | 57° |
| 2026-04-25 14:50 | 54.39388 | 7.93835 | 19999 ft | 452 kts | 57° |
| 2026-04-25 14:50 | 54.41102 | 7.98356 | 19998 ft | 452 kts | 57° |
| 2026-04-25 14:50 | 54.42816 | 8.02883 | 20001 ft | 452 kts | 57° |
| 2026-04-25 14:50 | 54.44507 | 8.07358 | 20001 ft | 452 kts | 57° |
| 2026-04-25 14:51 | 54.46218 | 8.11894 | 20001 ft | 452 kts | 57° |
| 2026-04-25 14:51 | 54.47935 | 8.16454 | 19998 ft | 452 kts | 57° |
| 2026-04-25 14:51 | 54.49550 | 8.20749 | 19998 ft | 452 kts | 57° |
| 2026-04-25 14:51 | 54.51275 | 8.25346 | 20000 ft | 452 kts | 57° |
| 2026-04-25 14:52 | 54.52984 | 8.29912 | 20000 ft | 452 kts | 57° |
| 2026-04-25 14:52 | 54.54084 | 8.32852 | 19996 ft | 452 kts | 57° |
| 2026-04-25 14:52 | 54.55774 | 8.37380 | 19999 ft | 452 kts | 57° |
| 2026-04-25 14:52 | 54.56919 | 8.40451 | 20001 ft | 452 kts | 57° |
| 2026-04-25 14:53 | 54.59188 | 8.46548 | 19999 ft | 452 kts | 57° |
| 2026-04-25 14:53 | 54.60868 | 8.51071 | 20001 ft | 452 kts | 57° |
| 2026-04-25 14:53 | 54.62554 | 8.55622 | 20001 ft | 452 kts | 57° |
| 2026-04-25 14:53 | 54.64226 | 8.60140 | 19998 ft | 452 kts | 57° |
| 2026-04-25 14:54 | 54.65914 | 8.64713 | 20000 ft | 452 kts | 57° |
| 2026-04-25 14:54 | 54.67606 | 8.69304 | 19999 ft | 452 kts | 57° |
| 2026-04-25 14:54 | 54.69286 | 8.73868 | 20001 ft | 452 kts | 57° |
| 2026-04-25 14:54 | 54.70851 | 8.78130 | 20000 ft | 452 kts | 57° |
| 2026-04-25 14:55 | 54.72526 | 8.82699 | 20001 ft | 452 kts | 57° |
| 2026-04-25 14:55 | 54.74218 | 8.87325 | 20001 ft | 452 kts | 57° |
| 2026-04-25 14:55 | 54.75903 | 8.91938 | 20000 ft | 452 kts | 57° |
| 2026-04-25 14:55 | 54.77589 | 8.96564 | 20001 ft | 452 kts | 57° |
| 2026-04-25 14:56 | 54.79156 | 9.00869 | 20001 ft | 452 kts | 58° |
| 2026-04-25 14:56 | 54.80706 | 9.05135 | 20001 ft | 452 kts | 58° |
| 2026-04-25 14:56 | 54.82351 | 9.09671 | 19998 ft | 453 kts | 58° |
| 2026-04-25 14:56 | 54.84047 | 9.14358 | 19998 ft | 453 kts | 58° |
| 2026-04-25 14:57 | 54.85809 | 9.18809 | 20000 ft | 452 kts | 52° |
| 2026-04-25 14:57 | 54.87761 | 9.23028 | 20002 ft | 452 kts | 50° |
| 2026-04-25 14:57 | 54.89823 | 9.27266 | 20001 ft | 452 kts | 49° |
| 2026-04-25 14:57 | 54.91881 | 9.31366 | 20000 ft | 452 kts | 48° |
| 2026-04-25 14:58 | 54.93911 | 9.35355 | 19997 ft | 452 kts | 48° |
| 2026-04-25 14:58 | 54.96007 | 9.39460 | 20001 ft | 452 kts | 48° |
| 2026-04-25 14:58 | 54.97778 | 9.42935 | 20001 ft | 452 kts | 48° |
| 2026-04-25 14:58 | 54.99803 | 9.46923 | 19999 ft | 452 kts | 48° |
| 2026-04-25 14:59 | 55.01425 | 9.50129 | 19998 ft | 452 kts | 48° |
| 2026-04-25 14:59 | 55.03507 | 9.54259 | 20000 ft | 452 kts | 49° |
| 2026-04-25 14:59 | 55.05579 | 9.58384 | 20001 ft | 452 kts | 49° |
| 2026-04-25 14:59 | 55.06951 | 9.61120 | 19999 ft | 452 kts | 49° |
| 2026-04-25 15:00 | 55.08888 | 9.65214 | 19995 ft | 453 kts | 53° |
| 2026-04-25 15:00 | 55.10524 | 9.69853 | 20000 ft | 453 kts | 63° |
| 2026-04-25 15:00 | 55.11713 | 9.74837 | 20002 ft | 453 kts | 70° |
| 2026-04-25 15:00 | 55.12688 | 9.79856 | 20003 ft | 453 kts | 72° |
| 2026-04-25 15:01 | 55.13612 | 9.84906 | 20002 ft | 453 kts | 72° |
| 2026-04-25 15:01 | 55.14360 | 9.89066 | 20002 ft | 452 kts | 72° |
| 2026-04-25 15:01 | 55.15325 | 9.94469 | 20005 ft | 452 kts | 72° |
| 2026-04-25 15:01 | 55.16261 | 9.99733 | 20003 ft | 452 kts | 72° |
| 2026-04-25 15:02 | 55.17190 | 10.04977 | 20000 ft | 453 kts | 72° |
| 2026-04-25 15:02 | 55.18089 | 10.10069 | 20001 ft | 453 kts | 73° |
| 2026-04-25 15:02 | 55.18991 | 10.15186 | 20000 ft | 453 kts | 73° |
| 2026-04-25 15:02 | 55.19306 | 10.16980 | 19998 ft | 453 kts | 73° |
| 2026-04-25 15:03 | 55.19841 | 10.20032 | 20001 ft | 453 kts | 73° |
| 2026-04-25 15:03 | 55.20400 | 10.23224 | 20004 ft | 453 kts | 73° |
| 2026-04-25 15:03 | 55.21269 | 10.28192 | 20003 ft | 453 kts | 73° |
| 2026-04-25 15:03 | 55.22186 | 10.33452 | 19968 ft | 451 kts | 73° |
| 2026-04-25 15:04 | 55.23073 | 10.38557 | 19397 ft | 439 kts | 73° |
| 2026-04-25 15:04 | 55.23926 | 10.43475 | 18322 ft | 436 kts | 73° |
| 2026-04-25 15:04 | 55.24805 | 10.48562 | 17227 ft | 434 kts | 73° |
| 2026-04-25 15:04 | 55.25672 | 10.53593 | 16219 ft | 428 kts | 73° |
| 2026-04-25 15:05 | 55.26240 | 10.56896 | 15545 ft | 424 kts | 73° |
| 2026-04-25 15:05 | 55.26848 | 10.60440 | 14839 ft | 420 kts | 73° |
| 2026-04-25 15:05 | 55.27584 | 10.65184 | 13896 ft | 414 kts | 77° |
| 2026-04-25 15:06 | 55.28639 | 10.74884 | 11924 ft | 403 kts | 80° |
| 2026-04-25 15:06 | 55.29126 | 10.79699 | 10977 ft | 398 kts | 80° |
| 2026-04-25 15:06 | 55.29608 | 10.84479 | 10346 ft | 397 kts | 80° |
| 2026-04-25 15:06 | 55.30082 | 10.89190 | 10053 ft | 396 kts | 80° |
| 2026-04-25 15:07 | 55.30484 | 10.93199 | 9998 ft | 395 kts | 80° |
| 2026-04-25 15:07 | 55.30954 | 10.97881 | 9996 ft | 377 kts | 80° |
| 2026-04-25 15:07 | 55.31399 | 11.02341 | 10009 ft | 367 kts | 80° |
| 2026-04-25 15:07 | 55.31836 | 11.06732 | 9663 ft | 368 kts | 80° |
| 2026-04-25 15:08 | 55.32266 | 11.11068 | 9185 ft | 353 kts | 80° |
| 2026-04-25 15:08 | 55.32673 | 11.15184 | 9034 ft | 330 kts | 80° |
| 2026-04-25 15:08 | 55.33049 | 11.19009 | 9004 ft | 305 kts | 80° |
| 2026-04-25 15:08 | 55.33399 | 11.22570 | 8966 ft | 287 kts | 80° |
| 2026-04-25 15:09 | 55.33733 | 11.25992 | 8732 ft | 284 kts | 80° |
| 2026-04-25 15:09 | 55.34070 | 11.29440 | 8489 ft | 285 kts | 80° |
| 2026-04-25 15:09 | 55.34594 | 11.34832 | 8089 ft | 284 kts | 80° |
| 2026-04-25 15:10 | 55.34912 | 11.38121 | 8007 ft | 283 kts | 80° |
| 2026-04-25 15:10 | 55.35246 | 11.41577 | 7999 ft | 283 kts | 80° |
| 2026-04-25 15:10 | 55.35887 | 11.48241 | 8002 ft | 283 kts | 80° |
| 2026-04-25 15:11 | 55.36211 | 11.51632 | 7770 ft | 280 kts | 80° |
| 2026-04-25 15:11 | 55.36534 | 11.55006 | 7296 ft | 279 kts | 80° |
| 2026-04-25 15:11 | 55.36853 | 11.58367 | 6799 ft | 277 kts | 80° |
| 2026-04-25 15:12 | 55.37485 | 11.65038 | 5861 ft | 274 kts | 81° |
| 2026-04-25 15:12 | 55.37789 | 11.68267 | 5397 ft | 272 kts | 81° |
| 2026-04-25 15:12 | 55.38030 | 11.70832 | 5026 ft | 271 kts | 81° |
| 2026-04-25 15:12 | 55.38135 | 11.71950 | 4870 ft | 270 kts | 81° |
| 2026-04-25 15:13 | 55.38639 | 11.77343 | 4091 ft | 267 kts | 81° |
| 2026-04-25 15:13 | 55.39235 | 11.83748 | 3347 ft | 264 kts | 81° |
| 2026-04-25 15:13 | 55.39531 | 11.86936 | 3283 ft | 264 kts | 81° |
| 2026-04-25 15:14 | 55.39828 | 11.90148 | 3583 ft | 269 kts | 81° |
| 2026-04-25 15:14 | 55.40125 | 11.93382 | 3766 ft | 266 kts | 81° |
| 2026-04-25 15:14 | 55.40419 | 11.96584 | 3788 ft | 265 kts | 81° |
| 2026-04-25 15:14 | 55.40711 | 11.99765 | 3786 ft | 266 kts | 81° |
| 2026-04-25 15:15 | 55.41008 | 12.03027 | 3779 ft | 266 kts | 81° |
| 2026-04-25 15:15 | 55.41300 | 12.06242 | 3780 ft | 266 kts | 81° |
| 2026-04-25 15:15 | 55.41580 | 12.09328 | 3784 ft | 266 kts | 81° |
| 2026-04-25 15:15 | 55.41869 | 12.12524 | 3777 ft | 266 kts | 81° |
| 2026-04-25 15:16 | 55.42160 | 12.15749 | 3772 ft | 266 kts | 81° |
| 2026-04-25 15:16 | 55.42448 | 12.18948 | 3529 ft | 264 kts | 81° |
| 2026-04-25 15:16 | 55.43017 | 12.25313 | 3278 ft | 264 kts | 81° |
| 2026-04-25 15:17 | 55.43586 | 12.31703 | 3282 ft | 264 kts | 81° |
| 2026-04-25 15:17 | 55.43869 | 12.34905 | 3282 ft | 264 kts | 81° |
| 2026-04-25 15:17 | 55.44151 | 12.38099 | 3282 ft | 264 kts | 81° |
| 2026-04-25 15:18 | 55.44432 | 12.41283 | 3282 ft | 264 kts | 81° |
| 2026-04-25 15:18 | 55.44899 | 12.46622 | 3282 ft | 264 kts | 81° |
| 2026-04-25 15:18 | 55.45268 | 12.50853 | 3282 ft | 264 kts | 81° |
| 2026-04-25 15:19 | 55.45546 | 12.54046 | 3282 ft | 264 kts | 81° |
| 2026-04-25 15:19 | 55.45640 | 12.55129 | 3282 ft | 264 kts | 81° |
| 2026-04-25 15:19 | 55.46005 | 12.59349 | 3282 ft | 264 kts | 81° |
| 2026-04-25 15:19 | 55.46375 | 12.63650 | 3282 ft | 264 kts | 81° |
| 2026-04-25 15:20 | 55.46649 | 12.66837 | 3092 ft | 261 kts | 81° |
| 2026-04-25 15:20 | 55.46829 | 12.68945 | 2954 ft | 252 kts | 81° |
| 2026-04-25 15:20 | 55.47080 | 12.71889 | 2827 ft | 239 kts | 81° |
| 2026-04-25 15:20 | 55.47322 | 12.74731 | 2785 ft | 224 kts | 81° |
| 2026-04-25 15:21 | 55.47547 | 12.77384 | 2783 ft | 220 kts | 81° |
| 2026-04-25 15:21 | 55.47773 | 12.80046 | 2782 ft | 220 kts | 81° |
| 2026-04-25 15:21 | 55.47999 | 12.82727 | 2785 ft | 221 kts | 81° |
| 2026-04-25 15:21 | 55.48223 | 12.85387 | 2779 ft | 221 kts | 81° |
| 2026-04-25 15:22 | 55.48480 | 12.88067 | 2779 ft | 221 kts | 75° |
| 2026-04-25 15:22 | 55.49201 | 12.90424 | 2778 ft | 219 kts | 42° |
| 2026-04-25 15:22 | 55.50564 | 12.91423 | 2786 ft | 216 kts | 359° |
| 2026-04-25 15:22 | 55.51968 | 12.90617 | 2789 ft | 215 kts | 328° |
| 2026-04-25 15:23 | 55.53118 | 12.88928 | 2784 ft | 217 kts | 309° |
| 2026-04-25 15:23 | 55.53966 | 12.86726 | 2682 ft | 216 kts | 301° |
| 2026-04-25 15:23 | 55.54721 | 12.84558 | 2435 ft | 205 kts | 302° |
| 2026-04-25 15:23 | 55.55496 | 12.82489 | 2118 ft | 198 kts | 303° |
| 2026-04-25 15:24 | 55.56240 | 12.80504 | 1861 ft | 190 kts | 303° |
| 2026-04-25 15:24 | 55.56959 | 12.78568 | 1594 ft | 179 kts | 303° |
| 2026-04-25 15:24 | 55.57605 | 12.76833 | 1368 ft | 164 kts | 303° |
| 2026-04-25 15:24 | 55.58015 | 12.75734 | 1253 ft | 153 kts | 303° |
| 2026-04-25 15:25 | 55.58739 | 12.73787 | 981 ft | 134 kts | 303° |
| 2026-04-25 15:25 | 55.59206 | 12.72533 | 812 ft | 123 kts | 303° |
| 2026-04-25 15:25 | 55.59668 | 12.71293 | 657 ft | 120 kts | 303° |
| 2026-04-25 15:25 | 55.60128 | 12.70058 | 486 ft | 120 kts | 303° |
| 2026-04-25 15:26 | 55.60583 | 12.68834 | 331 ft | 118 kts | 303° |
| 2026-04-25 15:26 | 55.61034 | 12.67622 | 208 ft | 115 kts | 303° |
| 2026-04-25 15:26 | 55.61487 | 12.66399 | 519 ft | 129 kts | 303° |
| 2026-04-25 15:26 | 55.62030 | 12.64939 | 912 ft | 153 kts | 303° |
| 2026-04-25 15:27 | 55.62643 | 12.63315 | 1154 ft | 161 kts | 306° |
| 2026-04-25 15:27 | 55.63470 | 12.61799 | 1473 ft | 186 kts | 324° |
| 2026-04-25 15:27 | 55.65882 | 12.61029 | 2907 ft | 204 kts | 18° |
| 2026-04-25 15:28 | 55.66596 | 12.61704 | 3310 ft | 206 kts | 40° |
| 2026-04-25 15:28 | 55.67536 | 12.63721 | 4097 ft | 210 kts | 58° |
| 2026-04-25 15:28 | 55.68234 | 12.66042 | 4551 ft | 218 kts | 65° |
| 2026-04-25 15:28 | 55.68707 | 12.68526 | 4934 ft | 217 kts | 76° |
| 2026-04-25 15:29 | 55.68981 | 12.71173 | 4846 ft | 218 kts | 81° |
| 2026-04-25 15:29 | 55.69177 | 12.73807 | 4574 ft | 216 kts | 85° |
| 2026-04-25 15:29 | 55.69208 | 12.76478 | 4297 ft | 215 kts | 93° |
| 2026-04-25 15:29 | 55.69097 | 12.79122 | 4023 ft | 214 kts | 95° |
| 2026-04-25 15:30 | 55.68905 | 12.81710 | 3744 ft | 214 kts | 105° |
| 2026-04-25 15:30 | 55.68476 | 12.84261 | 3473 ft | 213 kts | 107° |
| 2026-04-25 15:30 | 55.68065 | 12.86731 | 3299 ft | 211 kts | 108° |
| 2026-04-25 15:30 | 55.67548 | 12.89164 | 3277 ft | 211 kts | 114° |
| 2026-04-25 15:31 | 55.66829 | 12.91436 | 3284 ft | 212 kts | 124° |
| 2026-04-25 15:31 | 55.65998 | 12.93575 | 3283 ft | 212 kts | 125° |
| 2026-04-25 15:31 | 55.65148 | 12.95718 | 3283 ft | 212 kts | 125° |
| 2026-04-25 15:31 | 55.64326 | 12.97787 | 3283 ft | 212 kts | 125° |
| 2026-04-25 15:32 | 55.63472 | 12.99934 | 3286 ft | 212 kts | 126° |
| 2026-04-25 15:32 | 55.62717 | 13.01832 | 3279 ft | 212 kts | 125° |
| 2026-04-25 15:32 | 55.61878 | 13.03958 | 3283 ft | 212 kts | 125° |
| 2026-04-25 15:33 | 55.60162 | 13.08166 | 3273 ft | 211 kts | 136° |
| 2026-04-25 15:33 | 55.58939 | 13.09591 | 3279 ft | 204 kts | 154° |
| 2026-04-25 15:33 | 55.57671 | 13.10365 | 3273 ft | 190 kts | 178° |
| 2026-04-25 15:33 | 55.56385 | 13.10038 | 3286 ft | 187 kts | 200° |
| 2026-04-25 15:34 | 55.55216 | 13.09054 | 3286 ft | 187 kts | 207° |
| 2026-04-25 15:34 | 55.54047 | 13.08046 | 3298 ft | 182 kts | 206° |
| 2026-04-25 15:34 | 55.52961 | 13.07127 | 3297 ft | 170 kts | 206° |
| 2026-04-25 15:34 | 55.52362 | 13.06621 | 3292 ft | 169 kts | 206° |
| 2026-04-25 15:35 | 55.50213 | 13.04216 | 3286 ft | 168 kts | 237° |
| 2026-04-25 15:35 | 55.49774 | 13.02328 | 3287 ft | 168 kts | 261° |
| 2026-04-25 15:35 | 55.49808 | 13.00286 | 3287 ft | 168 kts | 274° |
| 2026-04-25 15:36 | 55.50566 | 12.96678 | 3291 ft | 145 kts | 302° |
| 2026-04-25 15:36 | 55.51117 | 12.95222 | 3299 ft | 140 kts | 303° |
| 2026-04-25 15:36 | 55.51648 | 12.93801 | 3311 ft | 138 kts | 302° |
| 2026-04-25 15:37 | 55.52174 | 12.92379 | 3293 ft | 139 kts | 302° |
| 2026-04-25 15:37 | 55.52704 | 12.90945 | 3278 ft | 139 kts | 302° |
| 2026-04-25 15:37 | 55.53225 | 12.89521 | 3110 ft | 141 kts | 299° |
| 2026-04-25 15:37 | 55.53643 | 12.87909 | 2629 ft | 147 kts | 295° |
| 2026-04-25 15:38 | 55.54097 | 12.86289 | 2203 ft | 147 kts | 297° |
| 2026-04-25 15:38 | 55.54577 | 12.84684 | 1788 ft | 147 kts | 298° |
| 2026-04-25 15:38 | 55.55075 | 12.83128 | 1445 ft | 142 kts | 301° |
| 2026-04-25 15:38 | 55.55596 | 12.81688 | 1157 ft | 138 kts | 304° |
| 2026-04-25 15:39 | 55.56154 | 12.80313 | 830 ft | 138 kts | 306° |
| 2026-04-25 15:39 | 55.56766 | 12.78848 | 1059 ft | 167 kts | 307° |
| 2026-04-25 15:39 | 55.57577 | 12.77028 | 1401 ft | 196 kts | 307° |
| 2026-04-25 15:39 | 55.58303 | 12.75208 | 1608 ft | 169 kts | 301° |
| 2026-04-25 15:40 | 55.58883 | 12.73498 | 1163 ft | 160 kts | 300° |
| 2026-04-25 15:40 | 55.59080 | 12.72931 | 1037 ft | 156 kts | 301° |
| 2026-04-25 15:40 | 55.59981 | 12.70575 | 681 ft | 128 kts | 304° |
| 2026-04-25 15:40 | 55.60459 | 12.69249 | 448 ft | 131 kts | 301° |
| 2026-04-25 15:41 | 55.60954 | 12.67866 | 216 ft | 132 kts | 302° |
| 2026-04-25 15:41 | 55.61441 | 12.66542 | 66 ft | 124 kts | 303° |
| 2026-04-25 15:41 | 55.61870 | 12.65386 | 19 ft | 80 kts | 303° |
| 2026-04-25 15:41 | 55.62034 | 12.64945 | 26 ft | 26 kts | 302° |
| 2026-04-25 15:42 | 55.62111 | 12.64750 | 28 ft | 17 kts | 321° |
| 2026-04-25 15:42 | 55.62189 | 12.64753 | 27 ft | 0 kts | 28° |
| 2026-04-25 15:42 | 55.62194 | 12.64757 | 28 ft | 2 kts | 28° |
| 2026-04-25 15:42 | 55.62203 | 12.64766 | 28 ft | 0 kts | 28° |
| 2026-04-25 15:44 | 55.62212 | 12.64776 | 27 ft | 4 kts | 30° |
| 2026-04-25 15:44 | 55.62254 | 12.64827 | 28 ft | 10 kts | 35° |
| 2026-04-25 15:44 | 55.62306 | 12.64900 | 28 ft | 10 kts | 57° |
| 2026-04-25 15:44 | 55.62316 | 12.64985 | 27 ft | 3 kts | 136° |
| 2026-04-25 15:45 | 55.62290 | 12.65037 | 26 ft | 7 kts | 126° |
| 2026-04-25 15:45 | 55.62287 | 12.65045 | 30 ft | 0 kts | 122° |
| 2026-04-25 15:45 | 55.62281 | 12.65062 | 27 ft | 5 kts | 118° |
| 2026-04-25 15:45 | 55.62278 | 12.65076 | 30 ft | 7 kts | 112° |
| 2026-04-25 15:46 | 55.62383 | 12.65191 | 26 ft | 19 kts | 358° |
| 2026-04-25 15:46 | 55.62438 | 12.65261 | 24 ft | 7 kts | 105° |
| 2026-04-25 15:46 | 55.62437 | 12.65385 | 21 ft | 15 kts | 89° |
| 2026-04-25 15:46 | 55.62458 | 12.65520 | 22 ft | 12 kts | 44° |
| 2026-04-25 15:47 | 55.62512 | 12.65570 | 21 ft | 0 kts | 20° |
| 2026-04-25 15:47 | 55.62512 | 12.65571 | 21 ft | 0 kts | 20° |